Time;durP1;ratioP1;P1;durP2;ratioP2;P2;SDS_P1;SDS_P2;PMS_P1;PMS_P2;Temp;Humidity;BMP_temperature;BMP_pressure;BME280_temperature;BME280_humidity;BME280_pressure;Samples;Min_cycle;Max_cycle;Signal;HPM_P1;HPM_P2
2023/08/06 00:00:27;;;;;;;2.13;1.63;;;18.50;99.90;;;;;;4970939;28;20604;-79
2023/08/06 00:02:53;;;;;;;2.80;1.93;;;18.50;99.90;;;;;;4971788;28;20188;-79
2023/08/06 00:05:20;;;;;;;3.73;2.10;;;18.40;99.90;;;;;;4970626;28;20224;-79
2023/08/06 00:07:47;;;;;;;4.43;1.60;;;18.40;99.90;;;;;;4961898;28;20753;-79
2023/08/06 00:10:13;;;;;;;4.57;3.50;;;18.40;99.90;;;;;;4964012;28;20645;-79
2023/08/06 00:12:39;;;;;;;3.30;1.70;;;18.30;99.90;;;;;;4974535;28;20697;-77
2023/08/06 00:15:05;;;;;;;4.10;1.60;;;18.30;99.90;;;;;;4963147;28;20663;-79
2023/08/06 00:17:31;;;;;;;3.93;1.53;;;18.20;99.90;;;;;;4962872;28;20208;-79
2023/08/06 00:19:57;;;;;;;2.13;1.43;;;18.20;99.90;;;;;;4962592;28;21214;-79
2023/08/06 00:22:22;;;;;;;2.90;1.70;;;18.10;99.90;;;;;;4965454;28;20614;-79
2023/08/06 00:24:48;;;;;;;3.37;2.17;;;18.10;99.90;;;;;;4964569;29;20973;-77
2023/08/06 00:27:14;;;;;;;2.30;1.67;;;18.00;99.90;;;;;;4960231;28;20208;-78
2023/08/06 00:29:39;;;;;;;3.07;2.03;;;18.00;99.90;;;;;;4941679;29;20658;-77
2023/08/06 00:32:05;;;;;;;2.73;1.77;;;17.90;99.90;;;;;;4953841;29;20209;-78
2023/08/06 00:34:31;;;;;;;3.43;1.80;;;17.90;99.90;;;;;;4953481;29;20191;-78
2023/08/06 00:36:57;;;;;;;2.57;1.50;;;17.90;99.90;;;;;;4958850;28;20627;-78
2023/08/06 00:39:22;;;;;;;2.30;1.50;;;17.90;99.90;;;;;;4959404;29;20176;-78
2023/08/06 00:41:49;;;;;;;6.40;2.77;;;17.80;99.90;;;;;;4957821;28;20208;-78
2023/08/06 00:44:15;;;;;;;4.10;1.87;;;17.80;99.90;;;;;;4958384;28;20583;-78
2023/08/06 00:46:40;;;;;;;2.70;1.70;;;17.80;99.90;;;;;;4958909;28;20211;-78
2023/08/06 00:49:07;;;;;;;3.23;2.20;;;17.80;99.90;;;;;;4954388;29;20187;-78
2023/08/06 00:51:34;;;;;;;2.47;1.60;;;17.70;99.90;;;;;;4934496;29;20220;-78
2023/08/06 00:53:59;;;;;;;3.10;1.50;;;17.70;99.90;;;;;;4958239;29;20588;-78
2023/08/06 00:56:26;;;;;;;5.00;2.03;;;17.70;99.90;;;;;;4955855;28;20658;-78
2023/08/06 00:58:52;;;;;;;3.10;2.00;;;17.60;99.90;;;;;;4966079;28;20599;-78
2023/08/06 01:01:18;;;;;;;3.70;2.33;;;17.70;99.90;;;;;;4973827;28;20602;-78
2023/08/06 01:03:44;;;;;;;3.80;2.10;;;17.70;99.90;;;;;;4965577;28;20593;-78
2023/08/06 01:06:10;;;;;;;5.20;1.70;;;17.70;99.90;;;;;;4965863;28;20215;-78
2023/08/06 01:08:45;;;;;;;2.73;1.80;;;17.70;99.90;;;;;;4975694;28;20689;-78
2023/08/06 01:11:42;;;;;;;2.73;2.43;;;17.80;99.90;;;;;;4960093;28;20176;-77
2023/08/06 01:14:23;;;;;;;4.00;1.80;;;17.70;99.90;;;;;;4965583;28;20595;-77
2023/08/06 01:16:51;;;;;;;4.30;2.20;;;17.80;99.90;;;;;;4952034;28;20612;-77
2023/08/06 01:19:20;;;;;;;3.80;2.10;;;17.80;99.90;;;;;;4960875;28;20607;-77
2023/08/06 01:21:45;;;;;;;2.67;1.67;;;17.90;99.90;;;;;;4966123;28;20592;-77
2023/08/06 01:24:12;;;;;;;4.27;1.93;;;17.90;99.90;;;;;;4969887;28;20588;-77
2023/08/06 01:26:45;;;;;;;3.03;2.00;;;17.90;99.90;;;;;;4941550;29;20216;-77
2023/08/06 01:29:20;;;;;;;2.80;1.60;;;18.00;99.90;;;;;;4978138;28;20626;-77
2023/08/06 01:31:50;;;;;;;2.40;1.50;;;18.00;99.90;;;;;;4979156;28;20636;-77
2023/08/06 01:34:26;;;;;;;3.80;1.30;;;18.00;99.90;;;;;;4978069;28;20588;-77
2023/08/06 01:36:52;;;;;;;3.73;1.73;;;18.00;99.90;;;;;;4973711;28;20633;-77
2023/08/06 01:39:20;;;;;;;3.17;2.10;;;18.00;99.90;;;;;;4972397;28;20687;-77
2023/08/06 01:41:48;;;;;;;6.10;2.50;;;17.90;99.90;;;;;;4981550;28;20590;-78
2023/08/06 01:44:14;;;;;;;2.13;1.30;;;17.90;99.90;;;;;;4936898;29;20599;-78
2023/08/06 01:46:40;;;;;;;2.73;1.60;;;17.90;99.90;;;;;;4976052;28;20660;-78
2023/08/06 01:49:06;;;;;;;2.60;1.87;;;17.90;99.90;;;;;;4963520;28;20604;-78
2023/08/06 01:51:32;;;;;;;2.23;1.67;;;17.90;99.90;;;;;;4976011;28;20640;-78
2023/08/06 01:53:58;;;;;;;2.27;1.33;;;17.90;99.90;;;;;;4970060;28;20176;-78
2023/08/06 01:56:24;;;;;;;2.30;2.00;;;17.90;99.90;;;;;;4960153;28;20631;-79
2023/08/06 01:58:50;;;;;;;2.20;1.60;;;17.90;99.90;;;;;;4969676;28;20590;-78
2023/08/06 02:01:16;;;;;;;4.17;2.17;;;17.90;99.90;;;;;;4980327;28;20207;-78
2023/08/06 02:03:42;;;;;;;2.93;1.80;;;17.90;99.90;;;;;;4974175;28;21217;-78
2023/08/06 02:06:09;;;;;;;2.13;1.77;;;17.80;99.90;;;;;;4966477;28;20199;-78
2023/08/06 02:08:35;;;;;;;2.93;1.90;;;17.80;99.90;;;;;;4972473;28;20583;-78
2023/08/06 02:11:02;;;;;;;3.73;1.77;;;17.80;99.90;;;;;;4981061;28;20171;-78
2023/08/06 02:13:30;;;;;;;2.40;1.90;;;17.80;99.90;;;;;;4982129;28;20183;-78
2023/08/06 02:15:55;;;;;;;3.63;1.70;;;17.80;99.90;;;;;;4982354;28;20598;-78
2023/08/06 02:18:21;;;;;;;3.47;2.07;;;17.80;99.90;;;;;;4980581;28;20238;-78
2023/08/06 02:20:59;;;;;;;2.57;2.30;;;17.80;99.90;;;;;;4969869;28;20180;-78
2023/08/06 02:23:25;;;;;;;3.27;1.70;;;17.70;99.90;;;;;;4940245;28;20210;-78
2023/08/06 02:25:58;;;;;;;3.43;2.00;;;17.70;99.90;;;;;;4975601;28;20691;-78
2023/08/06 02:28:24;;;;;;;2.80;1.60;;;17.70;99.90;;;;;;4974101;28;20583;-78
2023/08/06 02:30:51;;;;;;;4.40;2.17;;;17.70;99.90;;;;;;4959779;28;20591;-78
2023/08/06 02:33:16;;;;;;;2.20;1.47;;;17.70;99.90;;;;;;4972825;28;20211;-79
2023/08/06 02:35:43;;;;;;;4.17;2.30;;;17.70;99.90;;;;;;4980028;28;21056;-78
2023/08/06 02:38:09;;;;;;;2.07;1.57;;;17.70;99.90;;;;;;4980314;28;20599;-78
2023/08/06 02:40:35;;;;;;;3.10;1.53;;;17.70;99.90;;;;;;4971855;28;20183;-78
2023/08/06 02:43:00;;;;;;;3.60;1.80;;;17.70;99.90;;;;;;4962856;28;20208;-78
2023/08/06 02:45:26;;;;;;;2.60;2.30;;;17.70;99.90;;;;;;4973505;28;20179;-77
2023/08/06 02:47:52;;;;;;;3.73;1.70;;;17.80;99.90;;;;;;4979492;28;21308;-79
2023/08/06 02:50:17;;;;;;;2.67;1.67;;;17.80;99.90;;;;;;4943826;28;20179;-77
2023/08/06 02:52:43;;;;;;;9.10;1.93;;;17.80;99.90;;;;;;4974291;28;20223;-78
2023/08/06 02:55:09;;;;;;;2.67;1.83;;;17.80;99.90;;;;;;4965452;28;20198;-78
2023/08/06 02:57:40;;;;;;;4.03;1.90;;;17.90;99.90;;;;;;4984763;28;20611;-78
2023/08/06 03:00:07;;;;;;;2.67;1.67;;;17.80;99.90;;;;;;4942137;28;20635;-77
2023/08/06 03:02:32;;;;;;;3.67;1.37;;;17.80;99.90;;;;;;4982368;28;20184;-77
2023/08/06 03:05:12;;;;;;;2.43;1.93;;;17.90;99.90;;;;;;4953917;29;20594;-77
2023/08/06 03:07:42;;;;;;;2.30;1.77;;;17.90;99.90;;;;;;4978216;28;20626;-78
2023/08/06 03:10:17;;;;;;;6.23;1.70;;;17.90;99.90;;;;;;4981508;28;20595;-79
2023/08/06 03:12:43;;;;;;;3.47;1.50;;;17.90;99.90;;;;;;4964290;28;20654;-79
2023/08/06 03:15:09;;;;;;;2.40;1.90;;;17.90;99.90;;;;;;4976030;28;20580;-78
2023/08/06 03:17:35;;;;;;;2.20;1.17;;;17.90;99.90;;;;;;4966297;28;20282;-78
2023/08/06 03:20:03;;;;;;;4.10;1.80;;;17.90;99.90;;;;;;4970987;28;20948;-78
2023/08/06 03:22:30;;;;;;;3.20;1.50;;;17.90;99.90;;;;;;4976392;28;20607;-79
2023/08/06 03:24:55;;;;;;;3.10;1.50;;;17.90;99.90;;;;;;4980602;28;20594;-79
2023/08/06 03:27:24;;;;;;;3.77;1.73;;;17.90;99.90;;;;;;4966634;28;20227;-79
2023/08/06 03:29:52;;;;;;;2.33;1.47;;;18.00;99.90;;;;;;4970731;28;20598;-79
2023/08/06 03:32:21;;;;;;;1.87;1.37;;;18.00;99.90;;;;;;4947839;28;20634;-78
2023/08/06 03:34:47;;;;;;;3.70;1.70;;;17.90;99.90;;;;;;4969219;28;20595;-78
2023/08/06 03:37:14;;;;;;;2.43;1.60;;;17.90;99.90;;;;;;4964074;28;20610;-78
2023/08/06 03:39:40;;;;;;;3.40;1.30;;;17.90;99.90;;;;;;4971747;28;20587;-78
2023/08/06 03:42:05;;;;;;;2.63;1.60;;;17.80;99.90;;;;;;4979289;28;20184;-78
2023/08/06 03:44:31;;;;;;;2.03;1.20;;;17.80;99.90;;;;;;4973584;28;21156;-78
2023/08/06 03:46:57;;;;;;;3.20;1.50;;;17.70;99.90;;;;;;4976988;28;20618;-78
2023/08/06 03:49:22;;;;;;;2.03;1.40;;;17.70;99.90;;;;;;4972216;28;20176;-77
2023/08/06 03:51:48;;;;;;;2.93;1.60;;;17.60;99.90;;;;;;4968112;28;20200;-77
2023/08/06 03:54:14;;;;;;;3.33;1.33;;;17.50;99.90;;;;;;4967827;28;20207;-78
2023/08/06 03:56:40;;;;;;;2.40;1.63;;;17.50;99.90;;;;;;4935328;28;20258;-77
2023/08/06 03:59:05;;;;;;;2.33;1.40;;;17.50;99.90;;;;;;4968584;28;20195;-77
2023/08/06 04:01:31;;;;;;;2.20;1.23;;;17.40;99.90;;;;;;4979638;28;20190;-77
2023/08/06 04:03:57;;;;;;;2.87;1.40;;;17.30;99.90;;;;;;4928557;28;20188;-78
2023/08/06 04:06:23;;;;;;;2.93;1.93;;;17.30;99.90;;;;;;4977582;28;20638;-78
2023/08/06 04:08:48;;;;;;;2.80;1.67;;;17.20;99.90;;;;;;4977426;28;20570;-78
2023/08/06 04:11:14;;;;;;;2.70;1.70;;;17.20;99.90;;;;;;4977265;28;20172;-78
2023/08/06 04:13:44;;;;;;;2.90;1.80;;;17.20;99.90;;;;;;4965157;28;20184;-78
2023/08/06 04:16:10;;;;;;;2.83;1.60;;;17.10;99.90;;;;;;4972970;28;20622;-78
2023/08/06 04:18:36;;;;;;;2.30;1.93;;;17.10;99.90;;;;;;4972896;28;20613;-78
2023/08/06 04:21:02;;;;;;;2.43;1.30;;;17.10;99.90;;;;;;4973126;28;20171;-78
2023/08/06 04:23:28;;;;;;;3.80;2.03;;;17.10;99.90;;;;;;4973614;28;20243;-78
2023/08/06 04:25:58;;;;;;;5.43;1.27;;;17.10;99.90;;;;;;4958247;28;20608;-78
2023/08/06 04:28:26;;;;;;;3.00;1.30;;;17.00;99.90;;;;;;4967624;28;20594;-78
2023/08/06 04:30:53;;;;;;;2.90;1.67;;;17.00;99.90;;;;;;4972953;28;20596;-79
2023/08/06 04:33:20;;;;;;;3.10;1.43;;;17.00;99.90;;;;;;4973529;28;20712;-78
2023/08/06 04:35:46;;;;;;;4.67;1.60;;;17.00;99.90;;;;;;4972766;28;20950;-78
2023/08/06 04:38:13;;;;;;;2.60;1.20;;;17.00;99.90;;;;;;4964027;28;20622;-78
2023/08/06 04:40:38;;;;;;;3.40;1.20;;;17.00;99.90;;;;;;4973081;28;20737;-78
2023/08/06 04:43:04;;;;;;;3.63;1.73;;;17.00;99.90;;;;;;4972787;28;20599;-78
2023/08/06 04:45:33;;;;;;;4.13;1.53;;;17.00;99.90;;;;;;4972943;28;20183;-78
2023/08/06 04:47:58;;;;;;;2.37;1.60;;;17.00;99.90;;;;;;4966235;28;20623;-77
2023/08/06 04:50:24;;;;;;;3.20;1.50;;;17.00;99.90;;;;;;4961855;28;20634;-77
2023/08/06 04:52:50;;;;;;;2.20;1.37;;;17.00;99.90;;;;;;4968721;28;20235;-78
2023/08/06 04:55:15;;;;;;;2.97;1.43;;;17.10;99.90;;;;;;4964247;28;20586;-77
2023/08/06 04:57:41;;;;;;;2.37;1.30;;;17.10;99.90;;;;;;4973795;28;20207;-77
2023/08/06 05:00:07;;;;;;;3.57;1.67;;;17.10;99.90;;;;;;4965822;28;20179;-77
2023/08/06 05:02:34;;;;;;;2.57;1.60;;;17.20;99.90;;;;;;4973792;28;20530;-78
2023/08/06 05:05:00;;;;;;;2.53;1.50;;;17.20;99.90;;;;;;4973693;28;20593;-78
2023/08/06 05:07:26;;;;;;;2.50;2.07;;;17.20;99.90;;;;;;4972326;28;20629;-77
2023/08/06 05:09:52;;;;;;;2.67;1.30;;;17.20;99.90;;;;;;4940489;28;20683;-77
2023/08/06 05:12:18;;;;;;;3.13;1.20;;;17.20;99.90;;;;;;4957394;28;20218;-77
2023/08/06 05:14:43;;;;;;;3.30;1.60;;;17.30;99.90;;;;;;4962368;28;20189;-79
2023/08/06 05:17:09;;;;;;;2.97;1.60;;;17.30;99.90;;;;;;4970897;28;20202;-79
2023/08/06 05:19:35;;;;;;;2.70;2.00;;;17.30;99.90;;;;;;4972203;28;20274;-78
2023/08/06 05:22:01;;;;;;;4.93;2.00;;;17.30;99.90;;;;;;4972426;28;20188;-78
2023/08/06 05:24:27;;;;;;;3.53;2.07;;;17.40;99.90;;;;;;4964087;28;20184;-78
2023/08/06 05:26:53;;;;;;;3.03;1.70;;;17.50;99.90;;;;;;4938600;28;20632;-78
2023/08/06 05:29:19;;;;;;;3.20;1.70;;;17.50;99.90;;;;;;4972022;28;20187;-78
2023/08/06 05:31:44;;;;;;;2.60;1.67;;;17.60;99.90;;;;;;4973125;28;20207;-78
2023/08/06 05:34:10;;;;;;;2.77;1.57;;;17.60;99.90;;;;;;4969837;28;21204;-77
2023/08/06 05:36:36;;;;;;;3.37;2.00;;;17.70;99.90;;;;;;4967175;28;20239;-79
2023/08/06 05:39:02;;;;;;;5.13;1.80;;;17.70;99.90;;;;;;4972994;28;20187;-79
2023/08/06 05:41:27;;;;;;;4.40;1.70;;;17.70;99.90;;;;;;4971743;28;20184;-79
2023/08/06 05:43:53;;;;;;;1.90;1.53;;;17.70;99.90;;;;;;4972152;28;20278;-78
2023/08/06 05:46:19;;;;;;;2.23;1.63;;;17.70;99.90;;;;;;4968983;28;20200;-79
2023/08/06 05:48:44;;;;;;;2.63;1.30;;;17.80;99.90;;;;;;4967727;28;20218;-79
2023/08/06 05:51:12;;;;;;;2.33;1.20;;;17.80;99.90;;;;;;4973316;28;20184;-78
2023/08/06 05:53:38;;;;;;;3.57;1.50;;;17.90;99.90;;;;;;4973923;28;20187;-78
2023/08/06 05:56:04;;;;;;;2.63;1.30;;;17.90;99.90;;;;;;4972715;28;20586;-78
2023/08/06 05:58:30;;;;;;;2.70;1.23;;;17.90;99.90;;;;;;4949369;28;20202;-78
2023/08/06 06:00:56;;;;;;;1.90;1.30;;;18.00;99.90;;;;;;4964960;28;20198;-78
2023/08/06 06:03:22;;;;;;;2.23;1.23;;;18.00;99.90;;;;;;4968309;28;20618;-78
2023/08/06 06:05:47;;;;;;;2.67;1.43;;;18.00;99.90;;;;;;4978043;28;20586;-78
2023/08/06 06:08:13;;;;;;;2.40;1.63;;;17.90;99.90;;;;;;4978071;28;20207;-78
2023/08/06 06:10:39;;;;;;;1.90;1.30;;;17.90;99.90;;;;;;4960842;28;20647;-78
2023/08/06 06:13:04;;;;;;;2.30;1.60;;;18.00;99.90;;;;;;4977513;28;20689;-78
2023/08/06 06:15:30;;;;;;;3.10;1.60;;;17.90;99.90;;;;;;4966605;28;20200;-78
2023/08/06 06:17:56;;;;;;;7.53;1.67;;;17.90;99.90;;;;;;4960291;28;20215;-78
2023/08/06 06:20:22;;;;;;;3.00;1.30;;;17.90;99.90;;;;;;4977145;28;20184;-78
2023/08/06 06:22:47;;;;;;;4.43;1.60;;;18.00;99.90;;;;;;4983684;28;20591;-78
2023/08/06 06:25:13;;;;;;;3.30;2.13;;;17.90;99.90;;;;;;4983575;28;20585;-78
2023/08/06 06:27:39;;;;;;;3.83;1.70;;;18.00;99.90;;;;;;4970523;28;20229;-78
2023/08/06 06:30:05;;;;;;;2.27;1.90;;;18.00;99.90;;;;;;4972400;28;20185;-78
2023/08/06 06:32:31;;;;;;;4.47;1.90;;;18.00;99.90;;;;;;4973632;28;20204;-78
2023/08/06 06:34:58;;;;;;;3.57;1.50;;;18.10;99.90;;;;;;4972538;28;20641;-78
2023/08/06 06:37:24;;;;;;;5.40;1.80;;;18.10;99.90;;;;;;4976142;28;20256;-78
2023/08/06 06:39:49;;;;;;;2.50;1.50;;;18.20;99.90;;;;;;4981645;28;20655;-78
2023/08/06 06:42:16;;;;;;;2.40;1.13;;;18.20;99.90;;;;;;4969954;28;20274;-77
2023/08/06 06:44:45;;;;;;;3.80;1.50;;;18.30;99.90;;;;;;4975855;28;20191;-77
2023/08/06 06:47:10;;;;;;;1.90;1.10;;;18.30;99.90;;;;;;4964333;28;21255;-77
2023/08/06 06:49:36;;;;;;;1.83;1.20;;;18.40;99.90;;;;;;4972187;28;20263;-77
2023/08/06 06:52:02;;;;;;;1.83;0.80;;;18.40;99.90;;;;;;4967923;28;20219;-77
2023/08/06 06:54:28;;;;;;;1.30;0.70;;;18.40;99.90;;;;;;4971932;28;20180;-78
2023/08/06 06:56:54;;;;;;;1.50;0.80;;;18.50;99.90;;;;;;4967269;28;20603;-79
2023/08/06 06:59:20;;;;;;;1.40;0.70;;;18.50;99.90;;;;;;4970329;28;20253;-79
2023/08/06 07:01:46;;;;;;;1.80;0.60;;;18.50;99.90;;;;;;4983057;28;20593;-78
2023/08/06 07:04:11;;;;;;;2.30;0.60;;;18.50;99.90;;;;;;4983307;28;20285;-78
2023/08/06 07:06:37;;;;;;;1.30;0.60;;;18.50;99.90;;;;;;4976306;28;20211;-76
2023/08/06 07:09:03;;;;;;;1.27;0.50;;;18.50;99.90;;;;;;4962231;28;20209;-79
2023/08/06 07:11:29;;;;;;;1.40;0.70;;;18.50;99.90;;;;;;4982270;28;20350;-79
2023/08/06 07:13:58;;;;;;;1.73;0.73;;;18.50;99.90;;;;;;4975715;28;20587;-79
2023/08/06 07:16:24;;;;;;;1.27;0.60;;;18.50;99.90;;;;;;4975109;28;20207;-79
2023/08/06 07:18:53;;;;;;;1.50;0.80;;;18.60;99.90;;;;;;4973038;28;20602;-79
2023/08/06 07:21:18;;;;;;;1.30;0.50;;;18.60;99.90;;;;;;4980674;28;21215;-78
2023/08/06 07:23:45;;;;;;;1.50;0.70;;;18.60;99.90;;;;;;4974398;28;20587;-77
2023/08/06 07:26:10;;;;;;;1.40;0.60;;;18.60;99.90;;;;;;4962651;28;20203;-78
2023/08/06 07:28:36;;;;;;;2.60;0.83;;;18.60;99.90;;;;;;4962300;28;20588;-77
2023/08/06 07:31:03;;;;;;;1.30;0.60;;;18.70;99.90;;;;;;4981337;28;20176;-77
2023/08/06 07:33:28;;;;;;;1.40;0.70;;;18.70;99.90;;;;;;4966593;28;20284;-77
2023/08/06 07:35:54;;;;;;;1.30;0.70;;;18.70;99.90;;;;;;4969407;28;21124;-77
2023/08/06 07:38:20;;;;;;;1.20;0.60;;;18.80;99.90;;;;;;4965062;28;20993;-78
2023/08/06 07:40:46;;;;;;;1.43;0.70;;;18.80;99.90;;;;;;4964508;28;20393;-78
2023/08/06 07:43:11;;;;;;;1.30;0.60;;;18.90;99.90;;;;;;4961188;28;20634;-78
2023/08/06 07:45:37;;;;;;;3.97;2.30;;;19.00;99.90;;;;;;4965164;28;20172;-78
2023/08/06 07:48:03;;;;;;;2.20;1.10;;;19.10;99.90;;;;;;4961945;28;20199;-78
2023/08/06 07:50:29;;;;;;;1.80;0.83;;;19.20;99.90;;;;;;4964805;28;21168;-78
2023/08/06 07:52:55;;;;;;;1.37;0.50;;;19.30;99.90;;;;;;4969394;28;20641;-77
2023/08/06 07:55:21;;;;;;;1.50;0.60;;;19.50;99.90;;;;;;4966679;28;20657;-78
2023/08/06 07:57:46;;;;;;;1.40;0.60;;;19.60;99.90;;;;;;4974881;28;20200;-78
2023/08/06 08:00:12;;;;;;;1.27;0.63;;;19.80;99.90;;;;;;4973814;28;20275;-79
2023/08/06 08:02:40;;;;;;;1.53;0.63;;;19.90;99.90;;;;;;4974971;28;20214;-78
2023/08/06 08:05:08;;;;;;;2.77;0.87;;;20.10;99.90;;;;;;4960924;28;21465;-79
2023/08/06 08:07:33;;;;;;;1.63;0.70;;;20.20;99.90;;;;;;4948863;28;20228;-78
2023/08/06 08:09:59;;;;;;;1.20;0.60;;;20.20;99.90;;;;;;4928698;29;20610;-78
2023/08/06 08:12:25;;;;;;;1.20;0.50;;;20.20;99.90;;;;;;4941607;28;20647;-78
2023/08/06 08:14:50;;;;;;;1.30;0.60;;;20.20;99.90;;;;;;4944115;28;20172;-78
2023/08/06 08:17:16;;;;;;;1.40;0.50;;;20.20;99.90;;;;;;4943996;28;20216;-78
2023/08/06 08:19:43;;;;;;;1.50;0.60;;;20.20;99.90;;;;;;4948152;28;20180;-78
2023/08/06 08:22:08;;;;;;;3.03;2.20;;;20.20;99.90;;;;;;4944100;28;20184;-77
2023/08/06 08:24:34;;;;;;;2.20;1.30;;;20.20;99.90;;;;;;4958754;28;20611;-77
2023/08/06 08:27:00;;;;;;;2.67;1.30;;;20.30;99.90;;;;;;4929775;29;20208;-77
2023/08/06 08:29:26;;;;;;;1.83;0.90;;;20.30;99.90;;;;;;4933248;28;20934;-77
2023/08/06 08:31:52;;;;;;;1.90;1.00;;;20.40;99.90;;;;;;4947183;28;20642;-78
2023/08/06 08:34:18;;;;;;;1.27;0.60;;;20.40;99.90;;;;;;4944065;28;20173;-78
2023/08/06 08:36:46;;;;;;;1.40;0.60;;;20.40;99.90;;;;;;4943159;28;20291;-77
2023/08/06 08:39:15;;;;;;;1.20;0.50;;;20.40;99.90;;;;;;4945993;28;20726;-78
2023/08/06 08:41:41;;;;;;;1.20;0.50;;;20.40;99.90;;;;;;4942685;28;20614;-78
2023/08/06 08:44:10;;;;;;;1.30;0.60;;;20.40;99.90;;;;;;4943577;28;20599;-78
2023/08/06 08:46:38;;;;;;;1.30;0.50;;;20.50;99.90;;;;;;4944218;28;20698;-78
2023/08/06 08:49:04;;;;;;;1.50;0.60;;;20.60;99.90;;;;;;4944237;28;20658;-78
2023/08/06 08:51:31;;;;;;;1.20;0.50;;;20.60;99.90;;;;;;4942903;29;21066;-78
2023/08/06 08:53:57;;;;;;;1.60;0.60;;;20.70;99.90;;;;;;4942408;28;20666;-78
2023/08/06 08:56:23;;;;;;;1.77;0.60;;;20.70;99.90;;;;;;4925323;28;20655;-78
2023/08/06 08:58:50;;;;;;;1.30;0.70;;;20.80;99.90;;;;;;4945255;28;20955;-78
2023/08/06 09:01:16;;;;;;;1.50;0.70;;;20.90;99.90;;;;;;4947508;28;20608;-78
2023/08/06 09:03:44;;;;;;;2.03;0.60;;;20.90;99.90;;;;;;4947801;28;20627;-78
2023/08/06 09:06:11;;;;;;;1.33;0.60;;;21.00;99.90;;;;;;4958521;28;20603;-78
2023/08/06 09:08:43;;;;;;;1.70;0.80;;;21.00;99.90;;;;;;4947104;28;20598;-79
2023/08/06 09:11:10;;;;;;;1.30;0.70;;;21.00;99.90;;;;;;4942159;28;21380;-78
2023/08/06 09:13:37;;;;;;;1.50;0.60;;;21.00;99.90;;;;;;4930723;29;20652;-77
2023/08/06 09:16:03;;;;;;;1.30;0.70;;;21.00;99.90;;;;;;4946371;28;20663;-77
2023/08/06 09:18:30;;;;;;;1.40;0.77;;;21.00;99.90;;;;;;4946425;28;20599;-78
2023/08/06 09:20:57;;;;;;;1.40;1.00;;;20.90;99.90;;;;;;4941972;28;20283;-78
2023/08/06 09:23:30;;;;;;;1.60;0.80;;;20.90;99.90;;;;;;4931237;28;20690;-78
2023/08/06 09:25:59;;;;;;;2.10;0.80;;;20.90;99.90;;;;;;4958258;28;20607;-78
2023/08/06 09:28:38;;;;;;;1.63;0.90;;;20.90;99.90;;;;;;4942153;28;20600;-78
2023/08/06 09:31:03;;;;;;;1.83;1.10;;;20.80;99.90;;;;;;4941543;28;20599;-78
2023/08/06 09:33:29;;;;;;;2.03;1.00;;;20.70;99.90;;;;;;4926783;28;20644;-78
2023/08/06 09:35:55;;;;;;;1.67;1.10;;;20.60;99.90;;;;;;4943844;28;20185;-78
2023/08/06 09:38:21;;;;;;;1.50;0.90;;;20.50;99.90;;;;;;4943489;28;20231;-78
2023/08/06 09:40:47;;;;;;;2.07;1.10;;;20.30;99.90;;;;;;4947702;28;20231;-79
2023/08/06 09:43:13;;;;;;;2.20;1.53;;;20.20;99.90;;;;;;4948705;28;20548;-78
2023/08/06 09:45:39;;;;;;;2.17;1.50;;;20.10;99.90;;;;;;4937866;28;20623;-78
2023/08/06 09:48:14;;;;;;;2.10;1.40;;;20.10;99.90;;;;;;4956526;28;20646;-77
2023/08/06 09:50:41;;;;;;;2.03;1.83;;;20.10;99.90;;;;;;4953968;28;20618;-78
2023/08/06 09:53:08;;;;;;;2.23;1.70;;;20.00;99.90;;;;;;4948847;28;20738;-78
2023/08/06 09:55:34;;;;;;;2.50;2.13;;;20.10;99.90;;;;;;4945363;28;20597;-77
2023/08/06 09:58:00;;;;;;;2.70;2.40;;;20.10;99.90;;;;;;4952059;28;20682;-77
2023/08/06 10:00:28;;;;;;;3.03;1.87;;;20.10;99.90;;;;;;4951436;28;20601;-78
2023/08/06 10:02:55;;;;;;;1.83;1.60;;;20.20;99.90;;;;;;4944542;28;20596;-77
2023/08/06 10:05:23;;;;;;;2.57;1.30;;;20.20;99.90;;;;;;4947917;28;20604;-77
2023/08/06 10:07:53;;;;;;;1.70;1.00;;;20.20;99.90;;;;;;4946881;28;20639;-77
2023/08/06 10:10:21;;;;;;;4.10;0.80;;;20.10;99.90;;;;;;4944183;28;20603;-77
2023/08/06 10:12:51;;;;;;;4.07;1.03;;;19.90;99.90;;;;;;4959143;28;20643;-77
2023/08/06 10:15:25;;;;;;;3.10;1.20;;;19.80;99.90;;;;;;4942050;28;20635;-77
2023/08/06 10:17:54;;;;;;;2.13;1.00;;;19.50;99.90;;;;;;4951089;28;20624;-78
2023/08/06 10:20:22;;;;;;;1.90;0.57;;;19.30;99.90;;;;;;4943695;28;20618;-77
2023/08/06 10:23:03;;;;;;;1.10;0.50;;;19.00;99.90;;;;;;4942366;29;20604;-77
2023/08/06 10:25:34;;;;;;;1.40;0.60;;;18.80;99.90;;;;;;4941547;28;20640;-77
2023/08/06 10:28:01;;;;;;;1.40;0.50;;;18.60;99.90;;;;;;4941633;28;20682;-77
2023/08/06 10:30:32;;;;;;;1.10;0.40;;;18.40;99.90;;;;;;4941216;28;20619;-77
2023/08/06 10:33:00;;;;;;;1.23;0.50;;;18.20;99.90;;;;;;4941226;28;20691;-77
2023/08/06 10:35:34;;;;;;;1.27;0.50;;;18.10;99.90;;;;;;4955871;28;21189;-77
2023/08/06 10:38:05;;;;;;;1.20;0.40;;;18.00;99.90;;;;;;4955573;28;20672;-77
2023/08/06 10:40:32;;;;;;;1.40;0.60;;;17.80;99.90;;;;;;4945316;29;21010;-77
2023/08/06 10:43:00;;;;;;;1.20;0.50;;;17.70;99.90;;;;;;4941926;28;21063;-77
2023/08/06 10:45:28;;;;;;;1.87;0.50;;;17.70;99.90;;;;;;4943235;28;20627;-77
2023/08/06 10:47:56;;;;;;;1.40;0.63;;;17.60;99.90;;;;;;4944520;28;20659;-77
2023/08/06 10:50:22;;;;;;;3.83;0.70;;;17.50;99.90;;;;;;4940555;28;20668;-77
2023/08/06 10:52:48;;;;;;;2.00;0.70;;;17.40;99.90;;;;;;4945621;28;20656;-77
2023/08/06 10:55:21;;;;;;;1.90;0.80;;;17.40;99.90;;;;;;4955800;28;20189;-76
2023/08/06 10:57:47;;;;;;;1.73;0.80;;;17.30;99.90;;;;;;4957358;28;20223;-77
2023/08/06 11:00:13;;;;;;;4.23;1.30;;;17.20;99.90;;;;;;4939920;29;21237;-77
2023/08/06 11:02:39;;;;;;;2.57;0.80;;;17.10;99.90;;;;;;4947003;29;20191;-77
2023/08/06 11:05:09;;;;;;;2.10;0.90;;;17.10;99.90;;;;;;4940987;29;20597;-77
2023/08/06 11:07:36;;;;;;;3.23;0.90;;;17.10;99.90;;;;;;4946674;28;20229;-76
2023/08/06 11:10:06;;;;;;;2.63;1.07;;;17.00;99.90;;;;;;4944630;29;20612;-77
2023/08/06 11:12:32;;;;;;;2.13;0.90;;;17.00;99.90;;;;;;4941829;28;20640;-76
2023/08/06 11:14:59;;;;;;;3.00;1.00;;;17.00;99.90;;;;;;4944061;29;20639;-77
2023/08/06 11:17:25;;;;;;;1.70;1.03;;;16.90;99.90;;;;;;4956513;28;20691;-77
2023/08/06 11:19:53;;;;;;;2.43;1.13;;;16.90;99.90;;;;;;4945585;28;20600;-76
2023/08/06 11:22:21;;;;;;;1.90;1.00;;;16.90;99.90;;;;;;4925859;29;21183;-77
2023/08/06 11:24:48;;;;;;;2.60;0.80;;;16.90;99.90;;;;;;4950768;28;20646;-77
2023/08/06 11:27:14;;;;;;;2.13;1.10;;;17.00;99.90;;;;;;4948132;28;20635;-79
2023/08/06 11:29:41;;;;;;;4.07;0.90;;;17.00;99.90;;;;;;4947461;29;20596;-76
2023/08/06 11:32:08;;;;;;;2.10;1.00;;;17.00;99.90;;;;;;4948308;29;21293;-77
2023/08/06 11:34:34;;;;;;;2.90;1.00;;;17.10;99.90;;;;;;4950324;29;21220;-78
2023/08/06 11:37:00;;;;;;;2.53;1.03;;;17.20;99.90;;;;;;4944368;28;20620;-77
2023/08/06 11:39:27;;;;;;;1.70;0.97;;;17.20;99.90;;;;;;4945690;29;20663;-77
2023/08/06 11:41:52;;;;;;;5.13;1.30;;;17.30;99.90;;;;;;4927690;29;20691;-77
2023/08/06 11:44:20;;;;;;;3.00;1.10;;;17.40;99.90;;;;;;4944181;28;20585;-77
2023/08/06 11:47:00;;;;;;;4.47;1.20;;;17.40;99.90;;;;;;4941764;29;20317;-77
2023/08/06 11:49:48;;;;;;;2.07;0.90;;;17.50;99.90;;;;;;4956465;28;20985;-77
2023/08/06 11:52:18;;;;;;;3.10;1.00;;;17.60;99.90;;;;;;4976147;28;20729;-77
2023/08/06 11:54:45;;;;;;;4.57;0.90;;;17.70;99.90;;;;;;4944271;28;21064;-78
2023/08/06 11:57:11;;;;;;;2.73;0.90;;;17.70;99.90;;;;;;4949844;28;20654;-77
2023/08/06 11:59:38;;;;;;;1.93;0.77;;;17.80;99.90;;;;;;4949182;28;20612;-77
2023/08/06 12:02:05;;;;;;;3.33;0.97;;;17.80;99.90;;;;;;4944608;29;20647;-78
2023/08/06 12:04:32;;;;;;;3.00;1.00;;;17.90;99.90;;;;;;4951184;29;20592;-78
2023/08/06 12:07:16;;;;;;;4.40;1.50;;;18.00;99.90;;;;;;4950888;28;20619;-78
2023/08/06 12:09:42;;;;;;;4.27;2.50;;;18.10;99.90;;;;;;4948353;28;20599;-78
2023/08/06 12:12:07;;;;;;;3.90;1.17;;;18.20;99.90;;;;;;4945630;28;20648;-79
2023/08/06 12:14:33;;;;;;;2.33;1.10;;;18.30;99.90;;;;;;4947259;28;20646;-78
2023/08/06 12:17:00;;;;;;;1.70;0.80;;;18.40;99.90;;;;;;4952139;28;20204;-77
2023/08/06 12:19:26;;;;;;;2.10;0.87;;;18.50;99.90;;;;;;4949431;28;20538;-79
2023/08/06 12:21:52;;;;;;;1.90;0.73;;;18.70;99.90;;;;;;4946217;28;20587;-78
2023/08/06 12:24:18;;;;;;;2.23;0.90;;;18.80;99.90;;;;;;4951143;28;20180;-78
2023/08/06 12:26:43;;;;;;;2.13;1.07;;;18.80;99.90;;;;;;4952508;28;20208;-79
2023/08/06 12:29:09;;;;;;;2.53;0.90;;;18.90;99.90;;;;;;4945100;29;20205;-78
2023/08/06 12:31:35;;;;;;;2.33;0.83;;;18.90;99.90;;;;;;4949500;29;20174;-77
2023/08/06 12:34:01;;;;;;;2.80;0.80;;;19.00;99.90;;;;;;4947634;29;20177;-76
2023/08/06 12:36:27;;;;;;;2.60;0.80;;;19.00;99.90;;;;;;4949584;28;20269;-78
2023/08/06 12:38:53;;;;;;;1.70;0.80;;;19.00;99.90;;;;;;4943962;29;20597;-77
2023/08/06 12:41:23;;;;;;;1.53;0.70;;;19.00;99.90;;;;;;4937947;29;20686;-78
2023/08/06 12:43:48;;;;;;;3.50;0.90;;;18.90;99.90;;;;;;4944261;29;20169;-78
2023/08/06 12:46:15;;;;;;;2.90;0.87;;;18.90;99.90;;;;;;4935735;29;20985;-77